sensor_id;sensor_type;location;lat;lon;timestamp;temperature;humidity
13892;DHT22;7016;48.172;8.058;2023-03-01T00:01:02;1.80;99.90
13892;DHT22;7016;48.172;8.058;2023-03-01T00:03:28;1.90;99.90
13892;DHT22;7016;48.172;8.058;2023-03-01T00:05:54;1.80;99.90
13892;DHT22;7016;48.172;8.058;2023-03-01T00:08:19;1.70;99.90
13892;DHT22;7016;48.172;8.058;2023-03-01T00:10:45;1.90;99.90
13892;DHT22;7016;48.172;8.058;2023-03-01T00:13:11;2.00;99.90
13892;DHT22;7016;48.172;8.058;2023-03-01T00:15:40;2.10;99.90
13892;DHT22;7016;48.172;8.058;2023-03-01T00:18:07;2.10;99.90
13892;DHT22;7016;48.172;8.058;2023-03-01T00:20:34;2.10;99.90
13892;DHT22;7016;48.172;8.058;2023-03-01T00:23:00;2.10;99.90
13892;DHT22;7016;48.172;8.058;2023-03-01T00:25:25;2.10;99.90
13892;DHT22;7016;48.172;8.058;2023-03-01T00:27:51;2.00;99.90
13892;DHT22;7016;48.172;8.058;2023-03-01T00:30:17;2.00;99.90
13892;DHT22;7016;48.172;8.058;2023-03-01T00:32:43;1.80;99.90
13892;DHT22;7016;48.172;8.058;2023-03-01T00:35:08;1.80;99.90
13892;DHT22;7016;48.172;8.058;2023-03-01T00:37:34;1.80;99.90
13892;DHT22;7016;48.172;8.058;2023-03-01T00:40:00;1.70;99.90
13892;DHT22;7016;48.172;8.058;2023-03-01T00:42:25;1.80;99.90
13892;DHT22;7016;48.172;8.058;2023-03-01T00:44:51;1.70;99.90
13892;DHT22;7016;48.172;8.058;2023-03-01T00:47:17;1.70;99.90
13892;DHT22;7016;48.172;8.058;2023-03-01T00:49:42;1.80;99.90
13892;DHT22;7016;48.172;8.058;2023-03-01T00:52:08;1.70;99.90
13892;DHT22;7016;48.172;8.058;2023-03-01T00:54:34;1.70;99.90
13892;DHT22;7016;48.172;8.058;2023-03-01T00:56:59;1.70;99.90
13892;DHT22;7016;48.172;8.058;2023-03-01T00:59:25;1.70;99.90
13892;DHT22;7016;48.172;8.058;2023-03-01T01:01:51;1.80;99.90
13892;DHT22;7016;48.172;8.058;2023-03-01T01:04:16;1.80;99.90
13892;DHT22;7016;48.172;8.058;2023-03-01T01:06:46;1.80;99.90
13892;DHT22;7016;48.172;8.058;2023-03-01T01:09:14;1.80;99.90
13892;DHT22;7016;48.172;8.058;2023-03-01T01:11:48;1.80;99.90
13892;DHT22;7016;48.172;8.058;2023-03-01T01:14:14;1.80;99.90
13892;DHT22;7016;48.172;8.058;2023-03-01T01:16:40;1.00;99.90
13892;DHT22;7016;48.172;8.058;2023-03-01T01:19:06;1.60;99.90
13892;DHT22;7016;48.172;8.058;2023-03-01T01:21:32;1.60;99.90
13892;DHT22;7016;48.172;8.058;2023-03-01T01:23:58;1.70;99.90
13892;DHT22;7016;48.172;8.058;2023-03-01T01:26:29;1.80;99.90
13892;DHT22;7016;48.172;8.058;2023-03-01T01:28:56;1.40;99.90
13892;DHT22;7016;48.172;8.058;2023-03-01T01:31:23;1.40;99.90
13892;DHT22;7016;48.172;8.058;2023-03-01T01:33:49;1.60;99.90
13892;DHT22;7016;48.172;8.058;2023-03-01T01:36:16;1.60;99.90
13892;DHT22;7016;48.172;8.058;2023-03-01T01:38:41;1.60;99.90
13892;DHT22;7016;48.172;8.058;2023-03-01T01:41:11;1.60;99.90
13892;DHT22;7016;48.172;8.058;2023-03-01T01:43:42;1.50;99.90
13892;DHT22;7016;48.172;8.058;2023-03-01T01:46:25;1.60;99.90
13892;DHT22;7016;48.172;8.058;2023-03-01T01:48:59;1.70;99.90
13892;DHT22;7016;48.172;8.058;2023-03-01T01:51:33;1.70;99.90
13892;DHT22;7016;48.172;8.058;2023-03-01T01:54:10;1.80;99.90
13892;DHT22;7016;48.172;8.058;2023-03-01T01:56:41;1.80;99.90
13892;DHT22;7016;48.172;8.058;2023-03-01T01:59:09;1.80;99.90
13892;DHT22;7016;48.172;8.058;2023-03-01T02:01:34;1.70;99.90
13892;DHT22;7016;48.172;8.058;2023-03-01T02:04:00;1.60;99.90
13892;DHT22;7016;48.172;8.058;2023-03-01T02:06:31;1.60;99.90
13892;DHT22;7016;48.172;8.058;2023-03-01T02:09:02;1.60;99.90
13892;DHT22;7016;48.172;8.058;2023-03-01T02:11:30;1.30;99.90
13892;DHT22;7016;48.172;8.058;2023-03-01T02:13:56;1.20;99.90
13892;DHT22;7016;48.172;8.058;2023-03-01T02:16:22;1.20;99.90
13892;DHT22;7016;48.172;8.058;2023-03-01T02:18:50;1.40;99.90
13892;DHT22;7016;48.172;8.058;2023-03-01T02:21:42;1.40;99.90
13892;DHT22;7016;48.172;8.058;2023-03-01T02:26:48;1.40;99.90
13892;DHT22;7016;48.172;8.058;2023-03-01T02:29:15;1.50;99.90
13892;DHT22;7016;48.172;8.058;2023-03-01T02:31:41;1.50;99.90
13892;DHT22;7016;48.172;8.058;2023-03-01T02:34:18;1.60;99.90
13892;DHT22;7016;48.172;8.058;2023-03-01T02:37:13;1.50;99.90
13892;DHT22;7016;48.172;8.058;2023-03-01T02:39:44;1.50;99.90
13892;DHT22;7016;48.172;8.058;2023-03-01T02:42:15;1.50;99.90
13892;DHT22;7016;48.172;8.058;2023-03-01T02:44:42;1.50;99.90
13892;DHT22;7016;48.172;8.058;2023-03-01T02:47:08;1.40;99.90
13892;DHT22;7016;48.172;8.058;2023-03-01T02:49:35;1.40;99.90
13892;DHT22;7016;48.172;8.058;2023-03-01T02:54:50;1.60;99.90
13892;DHT22;7016;48.172;8.058;2023-03-01T02:57:16;1.60;99.90
13892;DHT22;7016;48.172;8.058;2023-03-01T02:59:43;1.60;99.90
13892;DHT22;7016;48.172;8.058;2023-03-01T03:05:37;1.30;99.90
13892;DHT22;7016;48.172;8.058;2023-03-01T03:07:57;1.30;99.90
13892;DHT22;7016;48.172;8.058;2023-03-01T03:10:25;1.20;99.90
13892;DHT22;7016;48.172;8.058;2023-03-01T03:12:57;1.20;99.90
13892;DHT22;7016;48.172;8.058;2023-03-01T03:15:24;1.30;99.90
13892;DHT22;7016;48.172;8.058;2023-03-01T03:17:52;1.50;99.90
13892;DHT22;7016;48.172;8.058;2023-03-01T03:20:21;1.40;99.90
13892;DHT22;7016;48.172;8.058;2023-03-01T03:22:48;1.40;99.90
13892;DHT22;7016;48.172;8.058;2023-03-01T03:25:15;1.40;99.90
13892;DHT22;7016;48.172;8.058;2023-03-01T03:27:43;1.30;99.90
13892;DHT22;7016;48.172;8.058;2023-03-01T03:30:13;1.30;99.90
13892;DHT22;7016;48.172;8.058;2023-03-01T03:32:40;1.30;99.90
13892;DHT22;7016;48.172;8.058;2023-03-01T03:35:08;1.30;99.90
13892;DHT22;7016;48.172;8.058;2023-03-01T03:37:41;1.20;99.90
13892;DHT22;7016;48.172;8.058;2023-03-01T03:40:26;1.30;99.90
13892;DHT22;7016;48.172;8.058;2023-03-01T03:42:52;1.20;99.90
13892;DHT22;7016;48.172;8.058;2023-03-01T03:45:18;1.30;99.90
13892;DHT22;7016;48.172;8.058;2023-03-01T03:47:44;1.30;99.90
13892;DHT22;7016;48.172;8.058;2023-03-01T03:50:15;1.20;99.90
13892;DHT22;7016;48.172;8.058;2023-03-01T03:52:41;1.30;99.90
13892;DHT22;7016;48.172;8.058;2023-03-01T03:55:09;1.20;99.90
13892;DHT22;7016;48.172;8.058;2023-03-01T03:57:41;1.10;99.90
13892;DHT22;7016;48.172;8.058;2023-03-01T04:00:09;1.20;99.90
13892;DHT22;7016;48.172;8.058;2023-03-01T04:02:44;1.20;99.90
13892;DHT22;7016;48.172;8.058;2023-03-01T04:05:11;1.10;99.90
13892;DHT22;7016;48.172;8.058;2023-03-01T04:07:38;1.10;99.90
13892;DHT22;7016;48.172;8.058;2023-03-01T04:10:12;1.10;99.90
13892;DHT22;7016;48.172;8.058;2023-03-01T04:12:38;1.20;99.90
13892;DHT22;7016;48.172;8.058;2023-03-01T04:15:05;1.10;99.90
13892;DHT22;7016;48.172;8.058;2023-03-01T04:17:40;1.30;99.90
13892;DHT22;7016;48.172;8.058;2023-03-01T04:20:10;1.30;99.90
13892;DHT22;7016;48.172;8.058;2023-03-01T04:22:37;1.30;99.90
13892;DHT22;7016;48.172;8.058;2023-03-01T04:25:03;1.40;99.90
13892;DHT22;7016;48.172;8.058;2023-03-01T04:27:30;1.50;99.90
13892;DHT22;7016;48.172;8.058;2023-03-01T04:29:56;1.40;99.90
13892;DHT22;7016;48.172;8.058;2023-03-01T04:32:21;1.40;99.90
13892;DHT22;7016;48.172;8.058;2023-03-01T04:34:47;1.30;99.90
13892;DHT22;7016;48.172;8.058;2023-03-01T04:37:13;1.30;99.90
13892;DHT22;7016;48.172;8.058;2023-03-01T04:39:41;1.30;99.90
13892;DHT22;7016;48.172;8.058;2023-03-01T04:42:11;1.40;99.90
13892;DHT22;7016;48.172;8.058;2023-03-01T04:44:37;1.40;99.90
13892;DHT22;7016;48.172;8.058;2023-03-01T04:47:03;1.50;99.90
13892;DHT22;7016;48.172;8.058;2023-03-01T04:49:29;1.60;99.90
13892;DHT22;7016;48.172;8.058;2023-03-01T04:51:54;1.70;99.90
13892;DHT22;7016;48.172;8.058;2023-03-01T04:54:20;1.70;99.90
13892;DHT22;7016;48.172;8.058;2023-03-01T04:56:46;1.70;99.90
13892;DHT22;7016;48.172;8.058;2023-03-01T04:59:12;1.80;99.90
13892;DHT22;7016;48.172;8.058;2023-03-01T05:01:38;1.80;99.90
13892;DHT22;7016;48.172;8.058;2023-03-01T05:04:03;1.80;99.90
13892;DHT22;7016;48.172;8.058;2023-03-01T05:06:31;1.90;99.90
13892;DHT22;7016;48.172;8.058;2023-03-01T05:08:56;2.10;99.90
13892;DHT22;7016;48.172;8.058;2023-03-01T05:11:23;2.00;99.90
13892;DHT22;7016;48.172;8.058;2023-03-01T05:13:49;2.10;99.90
13892;DHT22;7016;48.172;8.058;2023-03-01T05:16:20;2.00;99.90
13892;DHT22;7016;48.172;8.058;2023-03-01T05:18:45;2.10;99.90
13892;DHT22;7016;48.172;8.058;2023-03-01T05:21:13;2.10;99.90
13892;DHT22;7016;48.172;8.058;2023-03-01T05:23:41;2.10;99.90
13892;DHT22;7016;48.172;8.058;2023-03-01T05:26:08;1.90;99.90
13892;DHT22;7016;48.172;8.058;2023-03-01T05:28:34;1.80;99.90
13892;DHT22;7016;48.172;8.058;2023-03-01T05:31:00;1.90;99.90
13892;DHT22;7016;48.172;8.058;2023-03-01T05:33:26;2.00;99.90
13892;DHT22;7016;48.172;8.058;2023-03-01T05:35:53;2.10;99.90
13892;DHT22;7016;48.172;8.058;2023-03-01T05:38:20;2.10;99.90
13892;DHT22;7016;48.172;8.058;2023-03-01T05:40:47;2.10;99.90
13892;DHT22;7016;48.172;8.058;2023-03-01T05:43:15;2.10;99.90
13892;DHT22;7016;48.172;8.058;2023-03-01T05:45:42;2.00;99.90
13892;DHT22;7016;48.172;8.058;2023-03-01T05:48:08;2.00;99.90
13892;DHT22;7016;48.172;8.058;2023-03-01T05:50:42;2.10;99.90
13892;DHT22;7016;48.172;8.058;2023-03-01T05:53:13;2.10;99.90
13892;DHT22;7016;48.172;8.058;2023-03-01T05:55:39;2.20;99.90
13892;DHT22;7016;48.172;8.058;2023-03-01T05:58:07;2.20;99.90
13892;DHT22;7016;48.172;8.058;2023-03-01T06:00:34;2.20;99.90
13892;DHT22;7016;48.172;8.058;2023-03-01T06:03:00;2.10;99.90
13892;DHT22;7016;48.172;8.058;2023-03-01T06:05:27;2.10;99.90
13892;DHT22;7016;48.172;8.058;2023-03-01T06:07:53;2.10;99.90
13892;DHT22;7016;48.172;8.058;2023-03-01T06:10:21;2.10;99.90
13892;DHT22;7016;48.172;8.058;2023-03-01T06:12:47;2.10;99.90
13892;DHT22;7016;48.172;8.058;2023-03-01T06:15:15;2.20;99.90
13892;DHT22;7016;48.172;8.058;2023-03-01T06:17:43;2.10;99.90
13892;DHT22;7016;48.172;8.058;2023-03-01T06:20:13;2.00;99.90
13892;DHT22;7016;48.172;8.058;2023-03-01T06:22:41;2.10;99.90
13892;DHT22;7016;48.172;8.058;2023-03-01T06:25:08;2.10;99.90
13892;DHT22;7016;48.172;8.058;2023-03-01T06:27:34;2.10;99.90
13892;DHT22;7016;48.172;8.058;2023-03-01T06:30:00;2.10;99.90
13892;DHT22;7016;48.172;8.058;2023-03-01T06:32:26;2.10;99.90
13892;DHT22;7016;48.172;8.058;2023-03-01T06:34:52;2.10;99.90
13892;DHT22;7016;48.172;8.058;2023-03-01T06:37:18;2.00;99.90
13892;DHT22;7016;48.172;8.058;2023-03-01T06:39:43;2.00;99.90
13892;DHT22;7016;48.172;8.058;2023-03-01T06:42:09;2.10;99.90
13892;DHT22;7016;48.172;8.058;2023-03-01T06:44:36;2.10;99.90
13892;DHT22;7016;48.172;8.058;2023-03-01T06:47:02;2.10;99.90
13892;DHT22;7016;48.172;8.058;2023-03-01T06:49:28;2.10;99.90
13892;DHT22;7016;48.172;8.058;2023-03-01T06:51:56;1.90;99.90
13892;DHT22;7016;48.172;8.058;2023-03-01T06:54:22;1.90;99.90
13892;DHT22;7016;48.172;8.058;2023-03-01T06:56:49;2.10;99.90
13892;DHT22;7016;48.172;8.058;2023-03-01T06:59:15;2.10;99.90
13892;DHT22;7016;48.172;8.058;2023-03-01T07:01:41;2.10;99.90
13892;DHT22;7016;48.172;8.058;2023-03-01T07:04:07;2.10;99.90
13892;DHT22;7016;48.172;8.058;2023-03-01T07:06:33;2.20;99.90
13892;DHT22;7016;48.172;8.058;2023-03-01T07:08:59;2.20;99.90
13892;DHT22;7016;48.172;8.058;2023-03-01T07:11:24;2.20;99.90
13892;DHT22;7016;48.172;8.058;2023-03-01T07:13:50;1.80;99.90
13892;DHT22;7016;48.172;8.058;2023-03-01T07:16:16;2.10;99.90
13892;DHT22;7016;48.172;8.058;2023-03-01T07:18:42;2.20;99.90
13892;DHT22;7016;48.172;8.058;2023-03-01T07:21:09;2.20;99.90
13892;DHT22;7016;48.172;8.058;2023-03-01T07:23:37;2.20;99.90
13892;DHT22;7016;48.172;8.058;2023-03-01T07:26:03;2.20;99.90
13892;DHT22;7016;48.172;8.058;2023-03-01T07:28:29;2.10;99.90
13892;DHT22;7016;48.172;8.058;2023-03-01T07:31:01;2.10;99.90
13892;DHT22;7016;48.172;8.058;2023-03-01T07:33:26;2.10;99.90
13892;DHT22;7016;48.172;8.058;2023-03-01T07:36:01;2.30;99.90
13892;DHT22;7016;48.172;8.058;2023-03-01T07:38:31;2.30;99.90
13892;DHT22;7016;48.172;8.058;2023-03-01T07:41:16;2.40;99.90
13892;DHT22;7016;48.172;8.058;2023-03-01T07:43:41;2.30;99.90
13892;DHT22;7016;48.172;8.058;2023-03-01T07:46:07;2.40;99.90
13892;DHT22;7016;48.172;8.058;2023-03-01T07:48:33;2.40;99.90
13892;DHT22;7016;48.172;8.058;2023-03-01T07:51:03;2.40;99.90
13892;DHT22;7016;48.172;8.058;2023-03-01T07:53:41;2.40;99.90
13892;DHT22;7016;48.172;8.058;2023-03-01T07:56:11;2.40;99.90
13892;DHT22;7016;48.172;8.058;2023-03-01T07:58:46;2.30;99.90
13892;DHT22;7016;48.172;8.058;2023-03-01T08:01:16;2.40;99.90
13892;DHT22;7016;48.172;8.058;2023-03-01T08:03:42;2.60;99.90
13892;DHT22;7016;48.172;8.058;2023-03-01T08:06:10;2.60;99.90
13892;DHT22;7016;48.172;8.058;2023-03-01T08:08:45;2.60;99.90
13892;DHT22;7016;48.172;8.058;2023-03-01T08:11:30;2.50;99.90
13892;DHT22;7016;48.172;8.058;2023-03-01T08:13:56;2.50;99.90
13892;DHT22;7016;48.172;8.058;2023-03-01T08:16:29;2.50;99.90
13892;DHT22;7016;48.172;8.058;2023-03-01T08:18:55;2.60;99.90
13892;DHT22;7016;48.172;8.058;2023-03-01T08:21:24;2.50;99.90
13892;DHT22;7016;48.172;8.058;2023-03-01T08:23:50;2.50;99.90
13892;DHT22;7016;48.172;8.058;2023-03-01T08:26:20;2.60;99.90
13892;DHT22;7016;48.172;8.058;2023-03-01T08:29:05;2.50;99.90
13892;DHT22;7016;48.172;8.058;2023-03-01T08:31:33;2.50;99.90
13892;DHT22;7016;48.172;8.058;2023-03-01T08:34:06;2.60;99.90
13892;DHT22;7016;48.172;8.058;2023-03-01T08:36:35;2.70;99.90
13892;DHT22;7016;48.172;8.058;2023-03-01T08:39:03;2.60;99.90
13892;DHT22;7016;48.172;8.058;2023-03-01T08:41:29;2.70;99.90
13892;DHT22;7016;48.172;8.058;2023-03-01T08:43:55;2.70;99.90
13892;DHT22;7016;48.172;8.058;2023-03-01T08:46:32;2.60;99.90
13892;DHT22;7016;48.172;8.058;2023-03-01T08:49:19;2.70;99.90
13892;DHT22;7016;48.172;8.058;2023-03-01T08:51:46;2.80;99.90
13892;DHT22;7016;48.172;8.058;2023-03-01T08:54:18;2.80;99.90
13892;DHT22;7016;48.172;8.058;2023-03-01T08:56:44;2.80;99.90
13892;DHT22;7016;48.172;8.058;2023-03-01T08:59:14;2.80;99.90
13892;DHT22;7016;48.172;8.058;2023-03-01T09:01:41;2.90;99.90
13892;DHT22;7016;48.172;8.058;2023-03-01T09:04:09;2.90;99.90
13892;DHT22;7016;48.172;8.058;2023-03-01T09:06:47;2.80;99.90
13892;DHT22;7016;48.172;8.058;2023-03-01T09:09:15;3.00;99.90
13892;DHT22;7016;48.172;8.058;2023-03-01T09:11:42;3.10;99.90
13892;DHT22;7016;48.172;8.058;2023-03-01T09:14:09;2.80;99.90
13892;DHT22;7016;48.172;8.058;2023-03-01T09:16:34;2.90;99.90
13892;DHT22;7016;48.172;8.058;2023-03-01T09:19:02;2.90;99.90
13892;DHT22;7016;48.172;8.058;2023-03-01T09:21:28;2.90;99.90
13892;DHT22;7016;48.172;8.058;2023-03-01T09:23:56;2.90;99.90
13892;DHT22;7016;48.172;8.058;2023-03-01T09:26:23;3.00;99.90
13892;DHT22;7016;48.172;8.058;2023-03-01T09:28:51;3.10;99.90
13892;DHT22;7016;48.172;8.058;2023-03-01T09:31:19;3.20;99.90
13892;DHT22;7016;48.172;8.058;2023-03-01T09:33:49;3.20;99.90
13892;DHT22;7016;48.172;8.058;2023-03-01T09:36:18;3.20;99.90
13892;DHT22;7016;48.172;8.058;2023-03-01T09:39:04;3.20;99.90
13892;DHT22;7016;48.172;8.058;2023-03-01T09:41:48;3.30;99.90
13892;DHT22;7016;48.172;8.058;2023-03-01T09:47:17;3.30;99.90
13892;DHT22;7016;48.172;8.058;2023-03-01T09:49:43;3.30;99.90
13892;DHT22;7016;48.172;8.058;2023-03-01T09:55:12;3.40;99.90
13892;DHT22;7016;48.172;8.058;2023-03-01T10:00:59;3.40;99.90
13892;DHT22;7016;48.172;8.058;2023-03-01T10:03:08;3.60;99.90
13892;DHT22;7016;48.172;8.058;2023-03-01T10:05:43;3.50;99.90
13892;DHT22;7016;48.172;8.058;2023-03-01T10:10:51;3.60;99.90
13892;DHT22;7016;48.172;8.058;2023-03-01T10:13:36;3.60;99.90
13892;DHT22;7016;48.172;8.058;2023-03-01T10:16:13;3.70;99.90
13892;DHT22;7016;48.172;8.058;2023-03-01T10:18:41;3.70;99.90
13892;DHT22;7016;48.172;8.058;2023-03-01T10:21:14;3.80;99.90
13892;DHT22;7016;48.172;8.058;2023-03-01T10:23:42;3.50;99.90
13892;DHT22;7016;48.172;8.058;2023-03-01T10:29:07;3.50;99.90
13892;DHT22;7016;48.172;8.058;2023-03-01T10:34:29;3.70;99.90
13892;DHT22;7016;48.172;8.058;2023-03-01T10:37:12;3.70;99.90
13892;DHT22;7016;48.172;8.058;2023-03-01T10:39:57;3.80;99.90
13892;DHT22;7016;48.172;8.058;2023-03-01T10:42:35;3.90;99.90
13892;DHT22;7016;48.172;8.058;2023-03-01T10:50:42;4.00;99.90
13892;DHT22;7016;48.172;8.058;2023-03-01T10:53:22;4.00;99.90
13892;DHT22;7016;48.172;8.058;2023-03-01T10:56:09;3.90;99.90
13892;DHT22;7016;48.172;8.058;2023-03-01T10:58:37;3.90;99.90
13892;DHT22;7016;48.172;8.058;2023-03-01T11:03:40;4.10;99.90
13892;DHT22;7016;48.172;8.058;2023-03-01T11:06:20;4.10;99.90
13892;DHT22;7016;48.172;8.058;2023-03-01T11:08:49;4.20;99.90
13892;DHT22;7016;48.172;8.058;2023-03-01T11:11:30;4.20;99.90
13892;DHT22;7016;48.172;8.058;2023-03-01T11:16:43;4.50;99.90
13892;DHT22;7016;48.172;8.058;2023-03-01T11:21:46;4.50;99.90
13892;DHT22;7016;48.172;8.058;2023-03-01T11:24:14;4.60;99.90
13892;DHT22;7016;48.172;8.058;2023-03-01T11:26:53;4.60;99.90
13892;DHT22;7016;48.172;8.058;2023-03-01T11:29:40;4.60;99.90
13892;DHT22;7016;48.172;8.058;2023-03-01T11:32:11;4.60;99.90
13892;DHT22;7016;48.172;8.058;2023-03-01T11:40:11;4.80;99.90
13892;DHT22;7016;48.172;8.058;2023-03-01T11:42:42;5.00;99.90
13892;DHT22;7016;48.172;8.058;2023-03-01T11:45:11;5.00;99.90
13892;DHT22;7016;48.172;8.058;2023-03-01T11:48:14;5.00;99.90
13892;DHT22;7016;48.172;8.058;2023-03-01T11:50:49;5.10;99.90
13892;DHT22;7016;48.172;8.058;2023-03-01T11:56:21;5.00;99.90
13892;DHT22;7016;48.172;8.058;2023-03-01T12:01:50;4.90;99.90
13892;DHT22;7016;48.172;8.058;2023-03-01T12:06:57;5.30;99.90
13892;DHT22;7016;48.172;8.058;2023-03-01T12:09:34;5.20;99.90
13892;DHT22;7016;48.172;8.058;2023-03-01T12:22:52;5.20;99.90
13892;DHT22;7016;48.172;8.058;2023-03-01T12:33:30;5.70;99.90
13892;DHT22;7016;48.172;8.058;2023-03-01T12:36:33;5.50;99.90
13892;DHT22;7016;48.172;8.058;2023-03-01T12:39:24;5.50;99.90
13892;DHT22;7016;48.172;8.058;2023-03-01T12:44:44;5.50;99.90
13892;DHT22;7016;48.172;8.058;2023-03-01T12:50:00;5.40;99.90
13892;DHT22;7016;48.172;8.058;2023-03-01T12:55:01;5.50;99.90
13892;DHT22;7016;48.172;8.058;2023-03-01T12:57:38;5.60;99.90
13892;DHT22;7016;48.172;8.058;2023-03-01T13:00:28;5.80;99.90
13892;DHT22;7016;48.172;8.058;2023-03-01T13:03:18;5.90;99.90
13892;DHT22;7016;48.172;8.058;2023-03-01T13:08:42;6.00;99.90
13892;DHT22;7016;48.172;8.058;2023-03-01T13:11:22;6.10;99.90
13892;DHT22;7016;48.172;8.058;2023-03-01T13:13:49;6.10;99.90
13892;DHT22;7016;48.172;8.058;2023-03-01T13:19:13;6.00;99.90
13892;DHT22;7016;48.172;8.058;2023-03-01T13:21:41;6.00;99.90
13892;DHT22;7016;48.172;8.058;2023-03-01T13:29:57;6.10;99.90
13892;DHT22;7016;48.172;8.058;2023-03-01T13:32:30;6.10;99.90
13892;DHT22;7016;48.172;8.058;2023-03-01T13:35:02;6.10;99.90
13892;DHT22;7016;48.172;8.058;2023-03-01T13:37:34;6.20;99.90
13892;DHT22;7016;48.172;8.058;2023-03-01T13:40:05;6.20;99.90
13892;DHT22;7016;48.172;8.058;2023-03-01T13:42:54;6.30;99.90
13892;DHT22;7016;48.172;8.058;2023-03-01T13:45:21;6.40;99.90
13892;DHT22;7016;48.172;8.058;2023-03-01T13:48:24;6.40;99.90
13892;DHT22;7016;48.172;8.058;2023-03-01T13:50:59;6.40;99.90
13892;DHT22;7016;48.172;8.058;2023-03-01T13:53:29;6.40;99.90
13892;DHT22;7016;48.172;8.058;2023-03-01T14:01:06;6.60;99.90
13892;DHT22;7016;48.172;8.058;2023-03-01T14:03:39;6.60;99.90
13892;DHT22;7016;48.172;8.058;2023-03-01T14:06:15;6.60;99.90
13892;DHT22;7016;48.172;8.058;2023-03-01T14:08:44;6.70;99.90
13892;DHT22;7016;48.172;8.058;2023-03-01T14:19:27;6.70;99.90
13892;DHT22;7016;48.172;8.058;2023-03-01T14:24:31;6.70;99.90
13892;DHT22;7016;48.172;8.058;2023-03-01T14:27:01;6.70;99.90
13892;DHT22;7016;48.172;8.058;2023-03-01T14:29:39;6.70;99.90
13892;DHT22;7016;48.172;8.058;2023-03-01T14:34:35;6.90;99.90
13892;DHT22;7016;48.172;8.058;2023-03-01T14:37:30;6.80;99.90
13892;DHT22;7016;48.172;8.058;2023-03-01T14:39:59;6.90;99.90
13892;DHT22;7016;48.172;8.058;2023-03-01T14:42:29;7.00;99.90
13892;DHT22;7016;48.172;8.058;2023-03-01T14:44:57;6.90;99.90
13892;DHT22;7016;48.172;8.058;2023-03-01T14:47:34;7.00;99.90
13892;DHT22;7016;48.172;8.058;2023-03-01T14:50:24;6.90;99.90
13892;DHT22;7016;48.172;8.058;2023-03-01T14:52:54;6.90;99.90
13892;DHT22;7016;48.172;8.058;2023-03-01T14:55:27;6.90;99.90
13892;DHT22;7016;48.172;8.058;2023-03-01T14:57:54;6.80;99.90
13892;DHT22;7016;48.172;8.058;2023-03-01T15:00:27;6.90;99.90
13892;DHT22;7016;48.172;8.058;2023-03-01T15:02:55;6.90;99.90
13892;DHT22;7016;48.172;8.058;2023-03-01T15:05:32;7.00;99.90
13892;DHT22;7016;48.172;8.058;2023-03-01T15:08:00;7.00;99.90
13892;DHT22;7016;48.172;8.058;2023-03-01T15:10:29;7.00;99.90
13892;DHT22;7016;48.172;8.058;2023-03-01T15:12:56;7.00;99.90
13892;DHT22;7016;48.172;8.058;2023-03-01T15:15:32;7.00;99.90
13892;DHT22;7016;48.172;8.058;2023-03-01T15:18:00;7.00;99.90
13892;DHT22;7016;48.172;8.058;2023-03-01T15:20:28;7.00;99.90
13892;DHT22;7016;48.172;8.058;2023-03-01T15:22:56;7.00;99.90
13892;DHT22;7016;48.172;8.058;2023-03-01T15:25:27;7.10;99.90
13892;DHT22;7016;48.172;8.058;2023-03-01T15:27:56;7.10;99.90
13892;DHT22;7016;48.172;8.058;2023-03-01T15:30:33;7.10;99.90
13892;DHT22;7016;48.172;8.058;2023-03-01T15:35:47;7.00;99.90
13892;DHT22;7016;48.172;8.058;2023-03-01T15:38:28;7.00;99.90
13892;DHT22;7016;48.172;8.058;2023-03-01T15:40:55;7.10;99.90
13892;DHT22;7016;48.172;8.058;2023-03-01T15:43:48;7.10;99.90
13892;DHT22;7016;48.172;8.058;2023-03-01T15:46:18;7.10;99.90
13892;DHT22;7016;48.172;8.058;2023-03-01T15:48:46;7.20;99.90
13892;DHT22;7016;48.172;8.058;2023-03-01T15:51:13;7.30;99.90
13892;DHT22;7016;48.172;8.058;2023-03-01T15:53:40;7.30;99.90
13892;DHT22;7016;48.172;8.058;2023-03-01T15:56:06;7.30;99.90
13892;DHT22;7016;48.172;8.058;2023-03-01T15:58:32;7.30;99.90
13892;DHT22;7016;48.172;8.058;2023-03-01T16:00:58;7.30;99.90
13892;DHT22;7016;48.172;8.058;2023-03-01T16:03:24;7.30;99.90
13892;DHT22;7016;48.172;8.058;2023-03-01T16:05:51;7.30;99.90
13892;DHT22;7016;48.172;8.058;2023-03-01T16:08:18;7.40;99.90
13892;DHT22;7016;48.172;8.058;2023-03-01T16:10:44;7.40;99.90
13892;DHT22;7016;48.172;8.058;2023-03-01T16:13:14;7.40;99.90
13892;DHT22;7016;48.172;8.058;2023-03-01T16:15:40;7.40;99.90
13892;DHT22;7016;48.172;8.058;2023-03-01T16:18:06;7.30;99.90
13892;DHT22;7016;48.172;8.058;2023-03-01T16:20:33;7.20;99.90
13892;DHT22;7016;48.172;8.058;2023-03-01T16:23:00;7.30;99.90
13892;DHT22;7016;48.172;8.058;2023-03-01T16:25:27;7.20;99.90
13892;DHT22;7016;48.172;8.058;2023-03-01T16:27:53;7.20;99.90
13892;DHT22;7016;48.172;8.058;2023-03-01T16:30:21;7.20;99.90
13892;DHT22;7016;48.172;8.058;2023-03-01T16:32:48;7.10;99.90
13892;DHT22;7016;48.172;8.058;2023-03-01T16:35:16;7.20;99.90
13892;DHT22;7016;48.172;8.058;2023-03-01T16:37:42;7.20;99.90
13892;DHT22;7016;48.172;8.058;2023-03-01T16:40:24;7.20;99.90
13892;DHT22;7016;48.172;8.058;2023-03-01T16:42:51;7.00;99.90
13892;DHT22;7016;48.172;8.058;2023-03-01T16:45:18;6.80;99.90
13892;DHT22;7016;48.172;8.058;2023-03-01T16:47:44;6.80;99.90
13892;DHT22;7016;48.172;8.058;2023-03-01T16:50:10;6.80;99.90
13892;DHT22;7016;48.172;8.058;2023-03-01T16:52:36;6.90;99.90
13892;DHT22;7016;48.172;8.058;2023-03-01T16:55:04;7.00;99.90
13892;DHT22;7016;48.172;8.058;2023-03-01T16:57:30;6.90;99.90
13892;DHT22;7016;48.172;8.058;2023-03-01T16:59:56;6.90;99.90
13892;DHT22;7016;48.172;8.058;2023-03-01T17:02:22;7.00;99.90
13892;DHT22;7016;48.172;8.058;2023-03-01T17:04:55;6.90;99.90
13892;DHT22;7016;48.172;8.058;2023-03-01T17:07:21;6.90;99.90
13892;DHT22;7016;48.172;8.058;2023-03-01T17:09:47;6.80;99.90
13892;DHT22;7016;48.172;8.058;2023-03-01T17:12:14;6.80;99.90
13892;DHT22;7016;48.172;8.058;2023-03-01T17:14:42;6.70;99.90
13892;DHT22;7016;48.172;8.058;2023-03-01T17:17:09;6.70;99.90
13892;DHT22;7016;48.172;8.058;2023-03-01T17:19:35;6.70;99.90
13892;DHT22;7016;48.172;8.058;2023-03-01T17:22:05;6.70;99.90
13892;DHT22;7016;48.172;8.058;2023-03-01T17:24:35;6.60;99.90
13892;DHT22;7016;48.172;8.058;2023-03-01T17:27:02;6.50;99.90
13892;DHT22;7016;48.172;8.058;2023-03-01T17:29:28;6.60;99.90
13892;DHT22;7016;48.172;8.058;2023-03-01T17:31:53;6.60;99.90
13892;DHT22;7016;48.172;8.058;2023-03-01T17:34:22;6.50;99.90
13892;DHT22;7016;48.172;8.058;2023-03-01T17:36:48;6.40;99.90
13892;DHT22;7016;48.172;8.058;2023-03-01T17:39:15;6.30;99.90
13892;DHT22;7016;48.172;8.058;2023-03-01T17:41:41;6.30;99.90
13892;DHT22;7016;48.172;8.058;2023-03-01T17:44:07;6.40;99.90
13892;DHT22;7016;48.172;8.058;2023-03-01T17:46:33;6.40;99.90
13892;DHT22;7016;48.172;8.058;2023-03-01T17:48:59;6.20;99.90
13892;DHT22;7016;48.172;8.058;2023-03-01T17:51:24;6.00;99.90
13892;DHT22;7016;48.172;8.058;2023-03-01T17:53:50;6.00;99.90
13892;DHT22;7016;48.172;8.058;2023-03-01T17:56:16;6.10;99.90
13892;DHT22;7016;48.172;8.058;2023-03-01T17:58:42;6.00;99.90
13892;DHT22;7016;48.172;8.058;2023-03-01T18:01:13;6.00;99.90
13892;DHT22;7016;48.172;8.058;2023-03-01T18:03:40;6.00;99.90
13892;DHT22;7016;48.172;8.058;2023-03-01T18:06:18;6.00;99.90
13892;DHT22;7016;48.172;8.058;2023-03-01T18:08:44;5.90;99.90
13892;DHT22;7016;48.172;8.058;2023-03-01T18:11:13;5.80;99.90